sensor_id;sensor_type;location;lat;lon;timestamp;P1;durP1;ratioP1;P2;durP2;ratioP2
16115;SDS011;8162;47.104;15.432;2023-03-03T00:01:47;18.73;;;15.67;;
16115;SDS011;8162;47.104;15.432;2023-03-03T00:04:48;18.03;;;12.93;;
16115;SDS011;8162;47.104;15.432;2023-03-03T00:07:49;17.53;;;13.13;;
16115;SDS011;8162;47.104;15.432;2023-03-03T00:10:51;19.47;;;15.40;;
16115;SDS011;8162;47.104;15.432;2023-03-03T00:13:53;17.70;;;13.97;;
16115;SDS011;8162;47.104;15.432;2023-03-03T00:16:54;17.37;;;13.27;;
16115;SDS011;8162;47.104;15.432;2023-03-03T00:19:56;16.80;;;12.27;;
16115;SDS011;8162;47.104;15.432;2023-03-03T00:23:05;16.23;;;12.27;;
16115;SDS011;8162;47.104;15.432;2023-03-03T00:26:21;17.70;;;13.30;;
16115;SDS011;8162;47.104;15.432;2023-03-03T00:35:31;14.73;;;12.03;;
16115;SDS011;8162;47.104;15.432;2023-03-03T00:38:34;16.13;;;12.70;;
16115;SDS011;8162;47.104;15.432;2023-03-03T00:41:36;16.93;;;12.87;;
16115;SDS011;8162;47.104;15.432;2023-03-03T00:44:42;16.23;;;13.00;;
16115;SDS011;8162;47.104;15.432;2023-03-03T00:47:43;16.20;;;12.60;;
16115;SDS011;8162;47.104;15.432;2023-03-03T00:50:44;14.27;;;12.07;;
16115;SDS011;8162;47.104;15.432;2023-03-03T00:53:45;16.03;;;12.40;;
16115;SDS011;8162;47.104;15.432;2023-03-03T00:56:46;16.00;;;12.83;;
16115;SDS011;8162;47.104;15.432;2023-03-03T00:59:47;15.97;;;12.57;;
16115;SDS011;8162;47.104;15.432;2023-03-03T01:02:48;15.27;;;12.80;;
16115;SDS011;8162;47.104;15.432;2023-03-03T01:05:51;18.40;;;14.10;;
16115;SDS011;8162;47.104;15.432;2023-03-03T01:08:52;14.30;;;11.67;;
16115;SDS011;8162;47.104;15.432;2023-03-03T01:11:56;15.70;;;12.80;;
16115;SDS011;8162;47.104;15.432;2023-03-03T01:14:57;18.00;;;13.77;;
16115;SDS011;8162;47.104;15.432;2023-03-03T01:17:58;15.77;;;13.40;;
16115;SDS011;8162;47.104;15.432;2023-03-03T01:20:59;15.53;;;12.10;;
16115;SDS011;8162;47.104;15.432;2023-03-03T01:24:01;17.87;;;13.17;;
16115;SDS011;8162;47.104;15.432;2023-03-03T01:27:02;15.53;;;11.57;;
16115;SDS011;8162;47.104;15.432;2023-03-03T01:30:03;17.00;;;13.57;;
16115;SDS011;8162;47.104;15.432;2023-03-03T01:33:05;16.20;;;12.43;;
16115;SDS011;8162;47.104;15.432;2023-03-03T01:36:06;15.40;;;12.20;;
16115;SDS011;8162;47.104;15.432;2023-03-03T01:39:09;15.70;;;11.73;;
16115;SDS011;8162;47.104;15.432;2023-03-03T01:42:10;15.70;;;12.30;;
16115;SDS011;8162;47.104;15.432;2023-03-03T01:45:24;18.40;;;13.20;;
16115;SDS011;8162;47.104;15.432;2023-03-03T01:51:37;20.57;;;14.97;;
16115;SDS011;8162;47.104;15.432;2023-03-03T01:54:41;17.50;;;13.77;;
16115;SDS011;8162;47.104;15.432;2023-03-03T01:57:45;17.60;;;13.90;;
16115;SDS011;8162;47.104;15.432;2023-03-03T02:00:49;18.20;;;14.20;;
16115;SDS011;8162;47.104;15.432;2023-03-03T02:03:50;17.97;;;14.00;;
16115;SDS011;8162;47.104;15.432;2023-03-03T02:06:54;16.03;;;13.63;;
16115;SDS011;8162;47.104;15.432;2023-03-03T02:10:08;19.80;;;15.13;;
16115;SDS011;8162;47.104;15.432;2023-03-03T02:13:10;18.60;;;14.40;;
16115;SDS011;8162;47.104;15.432;2023-03-03T02:16:11;17.40;;;14.60;;
16115;SDS011;8162;47.104;15.432;2023-03-03T02:19:16;17.47;;;14.33;;
16115;SDS011;8162;47.104;15.432;2023-03-03T02:22:21;18.93;;;14.90;;
16115;SDS011;8162;47.104;15.432;2023-03-03T02:25:33;19.30;;;15.80;;
16115;SDS011;8162;47.104;15.432;2023-03-03T02:28:43;20.57;;;15.73;;
16115;SDS011;8162;47.104;15.432;2023-03-03T02:31:44;21.20;;;15.07;;
16115;SDS011;8162;47.104;15.432;2023-03-03T02:34:47;18.43;;;14.60;;
16115;SDS011;8162;47.104;15.432;2023-03-03T02:37:48;17.37;;;14.30;;
16115;SDS011;8162;47.104;15.432;2023-03-03T02:43:59;19.13;;;14.27;;
16115;SDS011;8162;47.104;15.432;2023-03-03T02:47:00;16.57;;;13.70;;
16115;SDS011;8162;47.104;15.432;2023-03-03T02:50:01;21.33;;;14.90;;
16115;SDS011;8162;47.104;15.432;2023-03-03T02:53:02;21.70;;;14.70;;
16115;SDS011;8162;47.104;15.432;2023-03-03T02:56:03;19.07;;;15.07;;
16115;SDS011;8162;47.104;15.432;2023-03-03T02:59:04;18.70;;;15.30;;
16115;SDS011;8162;47.104;15.432;2023-03-03T03:02:05;20.87;;;15.33;;
16115;SDS011;8162;47.104;15.432;2023-03-03T03:05:07;19.37;;;15.23;;
16115;SDS011;8162;47.104;15.432;2023-03-03T03:08:09;21.87;;;15.07;;
16115;SDS011;8162;47.104;15.432;2023-03-03T03:11:10;18.93;;;15.03;;
16115;SDS011;8162;47.104;15.432;2023-03-03T03:14:11;18.37;;;14.20;;
16115;SDS011;8162;47.104;15.432;2023-03-03T03:17:12;16.20;;;13.37;;
16115;SDS011;8162;47.104;15.432;2023-03-03T03:20:13;18.17;;;14.53;;
16115;SDS011;8162;47.104;15.432;2023-03-03T03:23:15;20.20;;;14.93;;
16115;SDS011;8162;47.104;15.432;2023-03-03T03:26:16;19.60;;;14.77;;
16115;SDS011;8162;47.104;15.432;2023-03-03T03:29:19;16.50;;;14.13;;
16115;SDS011;8162;47.104;15.432;2023-03-03T03:32:21;19.37;;;15.00;;
16115;SDS011;8162;47.104;15.432;2023-03-03T03:35:22;17.23;;;13.50;;
16115;SDS011;8162;47.104;15.432;2023-03-03T03:38:23;20.03;;;14.63;;
16115;SDS011;8162;47.104;15.432;2023-03-03T03:41:26;23.07;;;16.17;;
16115;SDS011;8162;47.104;15.432;2023-03-03T03:44:27;18.47;;;14.47;;
16115;SDS011;8162;47.104;15.432;2023-03-03T03:47:28;18.40;;;14.77;;
16115;SDS011;8162;47.104;15.432;2023-03-03T03:50:29;18.20;;;13.80;;
16115;SDS011;8162;47.104;15.432;2023-03-03T03:53:31;18.37;;;14.27;;
16115;SDS011;8162;47.104;15.432;2023-03-03T03:56:32;22.07;;;15.97;;
16115;SDS011;8162;47.104;15.432;2023-03-03T03:59:33;16.90;;;14.20;;
16115;SDS011;8162;47.104;15.432;2023-03-03T04:02:36;17.67;;;14.13;;
16115;SDS011;8162;47.104;15.432;2023-03-03T04:05:37;16.10;;;13.97;;
16115;SDS011;8162;47.104;15.432;2023-03-03T04:08:38;19.30;;;15.20;;
16115;SDS011;8162;47.104;15.432;2023-03-03T04:11:39;17.47;;;14.13;;
16115;SDS011;8162;47.104;15.432;2023-03-03T04:14:40;17.60;;;13.83;;
16115;SDS011;8162;47.104;15.432;2023-03-03T04:17:41;18.77;;;13.87;;
16115;SDS011;8162;47.104;15.432;2023-03-03T04:20:42;18.03;;;14.33;;
16115;SDS011;8162;47.104;15.432;2023-03-03T04:23:43;17.33;;;12.57;;
16115;SDS011;8162;47.104;15.432;2023-03-03T04:26:44;16.40;;;12.60;;
16115;SDS011;8162;47.104;15.432;2023-03-03T04:29:45;18.90;;;13.20;;
16115;SDS011;8162;47.104;15.432;2023-03-03T04:32:47;18.27;;;13.77;;
16115;SDS011;8162;47.104;15.432;2023-03-03T04:35:48;16.47;;;13.43;;
16115;SDS011;8162;47.104;15.432;2023-03-03T04:38:50;19.73;;;12.67;;
16115;SDS011;8162;47.104;15.432;2023-03-03T04:41:51;17.43;;;13.97;;
16115;SDS011;8162;47.104;15.432;2023-03-03T04:44:52;19.70;;;14.63;;
16115;SDS011;8162;47.104;15.432;2023-03-03T04:47:53;19.70;;;15.00;;
16115;SDS011;8162;47.104;15.432;2023-03-03T04:50:54;17.73;;;14.90;;
16115;SDS011;8162;47.104;15.432;2023-03-03T04:53:55;18.63;;;15.20;;
16115;SDS011;8162;47.104;15.432;2023-03-03T04:56:56;19.03;;;14.80;;
16115;SDS011;8162;47.104;15.432;2023-03-03T04:59:58;17.70;;;14.10;;
16115;SDS011;8162;47.104;15.432;2023-03-03T05:02:59;19.30;;;14.20;;
16115;SDS011;8162;47.104;15.432;2023-03-03T05:06:00;18.70;;;13.70;;
16115;SDS011;8162;47.104;15.432;2023-03-03T05:09:01;15.70;;;13.70;;
16115;SDS011;8162;47.104;15.432;2023-03-03T05:12:02;17.57;;;14.00;;
16115;SDS011;8162;47.104;15.432;2023-03-03T05:15:04;17.77;;;14.23;;
16115;SDS011;8162;47.104;15.432;2023-03-03T05:18:05;18.33;;;13.80;;
16115;SDS011;8162;47.104;15.432;2023-03-03T05:21:06;18.33;;;15.20;;
16115;SDS011;8162;47.104;15.432;2023-03-03T05:24:08;17.77;;;13.70;;
16115;SDS011;8162;47.104;15.432;2023-03-03T05:27:09;16.97;;;13.50;;
16115;SDS011;8162;47.104;15.432;2023-03-03T05:30:11;17.97;;;13.83;;
16115;SDS011;8162;47.104;15.432;2023-03-03T05:33:12;16.13;;;13.90;;
16115;SDS011;8162;47.104;15.432;2023-03-03T05:36:14;16.33;;;13.57;;
16115;SDS011;8162;47.104;15.432;2023-03-03T05:39:15;17.63;;;13.43;;
16115;SDS011;8162;47.104;15.432;2023-03-03T05:42:16;16.83;;;13.27;;
16115;SDS011;8162;47.104;15.432;2023-03-03T05:45:18;17.10;;;13.07;;
16115;SDS011;8162;47.104;15.432;2023-03-03T05:48:23;17.03;;;12.33;;
16115;SDS011;8162;47.104;15.432;2023-03-03T05:51:24;19.03;;;15.27;;
16115;SDS011;8162;47.104;15.432;2023-03-03T05:54:25;20.37;;;16.10;;
16115;SDS011;8162;47.104;15.432;2023-03-03T05:57:26;19.17;;;15.27;;
16115;SDS011;8162;47.104;15.432;2023-03-03T06:00:27;16.27;;;13.13;;
16115;SDS011;8162;47.104;15.432;2023-03-03T06:03:27;16.53;;;13.20;;
16115;SDS011;8162;47.104;15.432;2023-03-03T06:06:28;19.87;;;12.30;;
16115;SDS011;8162;47.104;15.432;2023-03-03T06:09:31;19.93;;;13.77;;
16115;SDS011;8162;47.104;15.432;2023-03-03T06:12:33;17.53;;;13.00;;
16115;SDS011;8162;47.104;15.432;2023-03-03T06:15:34;17.43;;;12.70;;
16115;SDS011;8162;47.104;15.432;2023-03-03T06:18:35;15.97;;;13.03;;
16115;SDS011;8162;47.104;15.432;2023-03-03T06:21:36;19.13;;;12.57;;
16115;SDS011;8162;47.104;15.432;2023-03-03T06:24:37;14.93;;;12.10;;
16115;SDS011;8162;47.104;15.432;2023-03-03T06:27:38;17.17;;;13.47;;
16115;SDS011;8162;47.104;15.432;2023-03-03T06:30:39;15.07;;;12.57;;
16115;SDS011;8162;47.104;15.432;2023-03-03T06:33:40;17.73;;;13.97;;
16115;SDS011;8162;47.104;15.432;2023-03-03T06:36:42;16.50;;;13.07;;
16115;SDS011;8162;47.104;15.432;2023-03-03T06:39:43;15.97;;;13.60;;
16115;SDS011;8162;47.104;15.432;2023-03-03T06:42:44;17.63;;;12.53;;
16115;SDS011;8162;47.104;15.432;2023-03-03T06:45:45;18.93;;;12.63;;
16115;SDS011;8162;47.104;15.432;2023-03-03T06:48:46;15.67;;;12.97;;
16115;SDS011;8162;47.104;15.432;2023-03-03T06:51:48;18.67;;;13.43;;
16115;SDS011;8162;47.104;15.432;2023-03-03T06:54:49;16.57;;;13.70;;
16115;SDS011;8162;47.104;15.432;2023-03-03T06:57:53;16.97;;;13.60;;
16115;SDS011;8162;47.104;15.432;2023-03-03T07:00:59;15.83;;;12.83;;
16115;SDS011;8162;47.104;15.432;2023-03-03T07:04:00;16.63;;;13.33;;
16115;SDS011;8162;47.104;15.432;2023-03-03T07:07:15;18.90;;;14.07;;
16115;SDS011;8162;47.104;15.432;2023-03-03T07:10:23;16.73;;;12.83;;
16115;SDS011;8162;47.104;15.432;2023-03-03T07:13:26;23.27;;;14.37;;
16115;SDS011;8162;47.104;15.432;2023-03-03T07:16:27;18.40;;;13.87;;
16115;SDS011;8162;47.104;15.432;2023-03-03T07:19:30;22.30;;;14.80;;
16115;SDS011;8162;47.104;15.432;2023-03-03T07:22:32;19.57;;;14.97;;
16115;SDS011;8162;47.104;15.432;2023-03-03T07:25:34;21.30;;;15.67;;
16115;SDS011;8162;47.104;15.432;2023-03-03T07:28:35;21.33;;;14.50;;
16115;SDS011;8162;47.104;15.432;2023-03-03T07:31:40;18.70;;;14.13;;
16115;SDS011;8162;47.104;15.432;2023-03-03T07:34:43;18.20;;;14.70;;
16115;SDS011;8162;47.104;15.432;2023-03-03T07:37:45;16.97;;;14.63;;
16115;SDS011;8162;47.104;15.432;2023-03-03T07:40:47;16.60;;;13.43;;
16115;SDS011;8162;47.104;15.432;2023-03-03T07:44:32;16.73;;;13.00;;
16115;SDS011;8162;47.104;15.432;2023-03-03T07:50:24;18.50;;;15.17;;
16115;SDS011;8162;47.104;15.432;2023-03-03T07:53:26;19.87;;;14.77;;
16115;SDS011;8162;47.104;15.432;2023-03-03T07:56:34;18.87;;;13.93;;
16115;SDS011;8162;47.104;15.432;2023-03-03T07:59:35;17.57;;;14.50;;
16115;SDS011;8162;47.104;15.432;2023-03-03T08:06:07;17.93;;;14.33;;
16115;SDS011;8162;47.104;15.432;2023-03-03T08:09:29;17.13;;;13.77;;
16115;SDS011;8162;47.104;15.432;2023-03-03T08:12:36;16.47;;;13.13;;
16115;SDS011;8162;47.104;15.432;2023-03-03T08:15:40;17.97;;;13.97;;
16115;SDS011;8162;47.104;15.432;2023-03-03T08:18:48;15.90;;;13.90;;
16115;SDS011;8162;47.104;15.432;2023-03-03T08:21:51;19.17;;;15.67;;
16115;SDS011;8162;47.104;15.432;2023-03-03T08:24:58;16.33;;;14.03;;
16115;SDS011;8162;47.104;15.432;2023-03-03T08:27:59;22.13;;;15.67;;
16115;SDS011;8162;47.104;15.432;2023-03-03T08:31:00;18.83;;;14.20;;
16115;SDS011;8162;47.104;15.432;2023-03-03T08:34:00;19.20;;;14.57;;
16115;SDS011;8162;47.104;15.432;2023-03-03T08:37:02;25.87;;;15.47;;
16115;SDS011;8162;47.104;15.432;2023-03-03T08:40:03;17.07;;;13.43;;
16115;SDS011;8162;47.104;15.432;2023-03-03T08:43:04;17.50;;;14.37;;
16115;SDS011;8162;47.104;15.432;2023-03-03T08:46:05;17.63;;;13.70;;
16115;SDS011;8162;47.104;15.432;2023-03-03T08:49:09;21.43;;;13.30;;
16115;SDS011;8162;47.104;15.432;2023-03-03T08:52:09;19.37;;;14.23;;
16115;SDS011;8162;47.104;15.432;2023-03-03T08:55:10;17.07;;;13.20;;
16115;SDS011;8162;47.104;15.432;2023-03-03T08:58:12;19.67;;;13.30;;
16115;SDS011;8162;47.104;15.432;2023-03-03T09:01:14;18.63;;;13.83;;
16115;SDS011;8162;47.104;15.432;2023-03-03T09:04:17;17.50;;;12.27;;
16115;SDS011;8162;47.104;15.432;2023-03-03T09:07:18;15.43;;;12.43;;
16115;SDS011;8162;47.104;15.432;2023-03-03T09:10:20;17.23;;;13.60;;
16115;SDS011;8162;47.104;15.432;2023-03-03T09:13:27;17.00;;;12.60;;
16115;SDS011;8162;47.104;15.432;2023-03-03T09:16:29;19.23;;;13.90;;
16115;SDS011;8162;47.104;15.432;2023-03-03T09:19:36;15.43;;;12.70;;
16115;SDS011;8162;47.104;15.432;2023-03-03T09:22:37;16.40;;;13.53;;
16115;SDS011;8162;47.104;15.432;2023-03-03T09:25:38;19.93;;;13.47;;
16115;SDS011;8162;47.104;15.432;2023-03-03T09:28:39;17.03;;;12.47;;
16115;SDS011;8162;47.104;15.432;2023-03-03T09:31:44;17.33;;;12.97;;
16115;SDS011;8162;47.104;15.432;2023-03-03T09:34:51;18.50;;;12.87;;
16115;SDS011;8162;47.104;15.432;2023-03-03T09:37:52;20.00;;;14.57;;
16115;SDS011;8162;47.104;15.432;2023-03-03T09:50:47;18.13;;;12.97;;
16115;SDS011;8162;47.104;15.432;2023-03-03T09:54:03;17.57;;;13.60;;
16115;SDS011;8162;47.104;15.432;2023-03-03T10:00:30;18.87;;;14.33;;
16115;SDS011;8162;47.104;15.432;2023-03-03T10:04:02;22.37;;;14.30;;
16115;SDS011;8162;47.104;15.432;2023-03-03T10:07:32;20.57;;;15.40;;
16115;SDS011;8162;47.104;15.432;2023-03-03T10:20:39;19.50;;;14.73;;
16115;SDS011;8162;47.104;15.432;2023-03-03T10:27:04;14.77;;;12.60;;
16115;SDS011;8162;47.104;15.432;2023-03-03T10:37:02;24.17;;;12.93;;
16115;SDS011;8162;47.104;15.432;2023-03-03T10:40:24;19.97;;;12.80;;
16115;SDS011;8162;47.104;15.432;2023-03-03T10:53:46;12.87;;;9.77;;
16115;SDS011;8162;47.104;15.432;2023-03-03T10:57:10;15.77;;;10.77;;
16115;SDS011;8162;47.104;15.432;2023-03-03T11:00:37;13.73;;;11.17;;
16115;SDS011;8162;47.104;15.432;2023-03-03T11:04:06;15.30;;;11.23;;
16115;SDS011;8162;47.104;15.432;2023-03-03T11:07:21;15.87;;;11.57;;
16115;SDS011;8162;47.104;15.432;2023-03-03T11:10:58;19.10;;;11.47;;
16115;SDS011;8162;47.104;15.432;2023-03-03T11:14:29;15.60;;;11.03;;
16115;SDS011;8162;47.104;15.432;2023-03-03T11:24:48;12.60;;;10.07;;
16115;SDS011;8162;47.104;15.432;2023-03-03T11:28:24;12.57;;;9.53;;
16115;SDS011;8162;47.104;15.432;2023-03-03T11:31:38;13.03;;;9.90;;
16115;SDS011;8162;47.104;15.432;2023-03-03T11:34:55;13.40;;;9.60;;
16115;SDS011;8162;47.104;15.432;2023-03-03T11:41:10;14.30;;;11.17;;
16115;SDS011;8162;47.104;15.432;2023-03-03T11:44:53;13.03;;;9.73;;
16115;SDS011;8162;47.104;15.432;2023-03-03T11:48:13;15.63;;;11.27;;
16115;SDS011;8162;47.104;15.432;2023-03-03T11:51:47;15.00;;;9.10;;
16115;SDS011;8162;47.104;15.432;2023-03-03T11:57:55;17.50;;;10.60;;
16115;SDS011;8162;47.104;15.432;2023-03-03T12:04:38;12.93;;;9.80;;
16115;SDS011;8162;47.104;15.432;2023-03-03T12:07:49;13.90;;;9.87;;
16115;SDS011;8162;47.104;15.432;2023-03-03T12:34:26;11.00;;;9.50;;
16115;SDS011;8162;47.104;15.432;2023-03-03T12:37:53;12.07;;;9.33;;
16115;SDS011;8162;47.104;15.432;2023-03-03T12:41:32;13.40;;;9.50;;
16115;SDS011;8162;47.104;15.432;2023-03-03T13:17:22;12.23;;;10.23;;
16115;SDS011;8162;47.104;15.432;2023-03-03T13:27:07;13.83;;;10.37;;
16115;SDS011;8162;47.104;15.432;2023-03-03T13:30:21;15.93;;;10.17;;
16115;SDS011;8162;47.104;15.432;2023-03-03T13:33:29;14.17;;;10.00;;
16115;SDS011;8162;47.104;15.432;2023-03-03T13:36:45;14.63;;;9.23;;
16115;SDS011;8162;47.104;15.432;2023-03-03T13:39:59;15.33;;;9.70;;
16115;SDS011;8162;47.104;15.432;2023-03-03T13:46:32;13.87;;;9.37;;
16115;SDS011;8162;47.104;15.432;2023-03-03T13:49:46;10.70;;;9.07;;
16115;SDS011;8162;47.104;15.432;2023-03-03T13:56:39;12.33;;;9.90;;
16115;SDS011;8162;47.104;15.432;2023-03-03T14:06:39;16.57;;;11.33;;
16115;SDS011;8162;47.104;15.432;2023-03-03T14:13:22;12.50;;;10.13;;
16115;SDS011;8162;47.104;15.432;2023-03-03T14:17:00;12.87;;;9.93;;
16115;SDS011;8162;47.104;15.432;2023-03-03T14:23:18;11.97;;;9.30;;
16115;SDS011;8162;47.104;15.432;2023-03-03T14:26:46;12.93;;;9.27;;
16115;SDS011;8162;47.104;15.432;2023-03-03T14:29:54;11.60;;;9.37;;
16115;SDS011;8162;47.104;15.432;2023-03-03T14:36:12;13.07;;;10.40;;
16115;SDS011;8162;47.104;15.432;2023-03-03T14:42:45;11.57;;;10.20;;
16115;SDS011;8162;47.104;15.432;2023-03-03T14:45:52;12.77;;;9.37;;
16115;SDS011;8162;47.104;15.432;2023-03-03T14:48:54;14.33;;;10.60;;
16115;SDS011;8162;47.104;15.432;2023-03-03T14:52:40;12.20;;;10.17;;
16115;SDS011;8162;47.104;15.432;2023-03-03T14:55:29;14.70;;;11.23;;
16115;SDS011;8162;47.104;15.432;2023-03-03T14:58:39;12.57;;;9.40;;
16115;SDS011;8162;47.104;15.432;2023-03-03T15:01:41;12.13;;;9.70;;
16115;SDS011;8162;47.104;15.432;2023-03-03T15:04:45;13.67;;;10.10;;
16115;SDS011;8162;47.104;15.432;2023-03-03T15:07:49;14.87;;;10.77;;
16115;SDS011;8162;47.104;15.432;2023-03-03T15:11:11;12.93;;;10.13;;
16115;SDS011;8162;47.104;15.432;2023-03-03T15:14:18;13.70;;;9.70;;
16115;SDS011;8162;47.104;15.432;2023-03-03T15:20:31;11.07;;;9.87;;
16115;SDS011;8162;47.104;15.432;2023-03-03T15:30:38;11.73;;;9.87;;
16115;SDS011;8162;47.104;15.432;2023-03-03T15:51:13;9.63;;;8.37;;
16115;SDS011;8162;47.104;15.432;2023-03-03T16:05:17;11.27;;;9.33;;
16115;SDS011;8162;47.104;15.432;2023-03-03T16:11:58;13.73;;;10.10;;
16115;SDS011;8162;47.104;15.432;2023-03-03T16:18:40;12.53;;;9.73;;
16115;SDS011;8162;47.104;15.432;2023-03-03T16:28:13;13.60;;;9.17;;
16115;SDS011;8162;47.104;15.432;2023-03-03T16:34:41;13.40;;;8.30;;
16115;SDS011;8162;47.104;15.432;2023-03-03T16:40:54;9.27;;;8.03;;
16115;SDS011;8162;47.104;15.432;2023-03-03T16:50:30;12.60;;;8.90;;
16115;SDS011;8162;47.104;15.432;2023-03-03T17:06:53;12.37;;;9.23;;
16115;SDS011;8162;47.104;15.432;2023-03-03T17:20:03;15.43;;;9.27;;
16115;SDS011;8162;47.104;15.432;2023-03-03T17:26:22;11.83;;;7.97;;
16115;SDS011;8162;47.104;15.432;2023-03-03T17:29:30;12.90;;;8.60;;
16115;SDS011;8162;47.104;15.432;2023-03-03T17:35:53;11.43;;;9.57;;
16115;SDS011;8162;47.104;15.432;2023-03-03T17:39:03;11.43;;;8.67;;
16115;SDS011;8162;47.104;15.432;2023-03-03T17:42:14;14.57;;;9.00;;
16115;SDS011;8162;47.104;15.432;2023-03-03T17:45:19;9.67;;;8.37;;
16115;SDS011;8162;47.104;15.432;2023-03-03T18:04:50;13.60;;;8.20;;
16115;SDS011;8162;47.104;15.432;2023-03-03T18:11:25;12.27;;;8.47;;
16115;SDS011;8162;47.104;15.432;2023-03-03T18:23:49;14.33;;;10.53;;
16115;SDS011;8162;47.104;15.432;2023-03-03T18:26:50;14.37;;;10.00;;
16115;SDS011;8162;47.104;15.432;2023-03-03T18:33:13;15.00;;;10.23;;
16115;SDS011;8162;47.104;15.432;2023-03-03T18:39:38;18.87;;;11.73;;
16115;SDS011;8162;47.104;15.432;2023-03-03T18:42:44;19.13;;;12.40;;
16115;SDS011;8162;47.104;15.432;2023-03-03T18:45:49;13.60;;;11.77;;
16115;SDS011;8162;47.104;15.432;2023-03-03T18:52:23;14.90;;;12.37;;
16115;SDS011;8162;47.104;15.432;2023-03-03T18:55:25;14.63;;;11.30;;
16115;SDS011;8162;47.104;15.432;2023-03-03T18:58:33;13.13;;;10.53;;
16115;SDS011;8162;47.104;15.432;2023-03-03T19:01:42;13.67;;;10.23;;
16115;SDS011;8162;47.104;15.432;2023-03-03T19:04:48;15.93;;;11.40;;
16115;SDS011;8162;47.104;15.432;2023-03-03T19:11:00;13.80;;;10.30;;
16115;SDS011;8162;47.104;15.432;2023-03-03T19:14:37;17.60;;;11.90;;
16115;SDS011;8162;47.104;15.432;2023-03-03T19:20:41;13.33;;;11.17;;
16115;SDS011;8162;47.104;15.432;2023-03-03T19:33:51;16.83;;;12.23;;
16115;SDS011;8162;47.104;15.432;2023-03-03T19:40:07;15.73;;;12.30;;
16115;SDS011;8162;47.104;15.432;2023-03-03T19:43:14;16.47;;;12.87;;
16115;SDS011;8162;47.104;15.432;2023-03-03T19:46:35;16.97;;;13.57;;
16115;SDS011;8162;47.104;15.432;2023-03-03T19:49:57;18.43;;;14.50;;
16115;SDS011;8162;47.104;15.432;2023-03-03T19:53:06;13.90;;;12.40;;
16115;SDS011;8162;47.104;15.432;2023-03-03T20:09:16;15.90;;;12.80;;
16115;SDS011;8162;47.104;15.432;2023-03-03T20:12:12;17.70;;;13.87;;
16115;SDS011;8162;47.104;15.432;2023-03-03T20:22:01;21.23;;;15.60;;
16115;SDS011;8162;47.104;15.432;2023-03-03T20:32:14;18.10;;;13.80;;
16115;SDS011;8162;47.104;15.432;2023-03-03T20:35:37;18.63;;;13.03;;
16115;SDS011;8162;47.104;15.432;2023-03-03T20:39:08;19.57;;;12.53;;
16115;SDS011;8162;47.104;15.432;2023-03-03T20:42:44;17.27;;;12.10;;
16115;SDS011;8162;47.104;15.432;2023-03-03T20:57:17;23.07;;;16.47;;
16115;SDS011;8162;47.104;15.432;2023-03-03T21:00:41;23.73;;;15.53;;
16115;SDS011;8162;47.104;15.432;2023-03-03T21:04:20;20.50;;;16.07;;
16115;SDS011;8162;47.104;15.432;2023-03-03T21:07:24;20.10;;;15.40;;
16115;SDS011;8162;47.104;15.432;2023-03-03T21:10:27;20.73;;;14.93;;
16115;SDS011;8162;47.104;15.432;2023-03-03T21:13:41;21.63;;;15.73;;
16115;SDS011;8162;47.104;15.432;2023-03-03T21:16:44;21.97;;;16.23;;
16115;SDS011;8162;47.104;15.432;2023-03-03T21:19:46;17.50;;;14.13;;
16115;SDS011;8162;47.104;15.432;2023-03-03T21:22:47;22.53;;;15.67;;
16115;SDS011;8162;47.104;15.432;2023-03-03T21:25:49;18.93;;;14.50;;
16115;SDS011;8162;47.104;15.432;2023-03-03T21:28:59;19.27;;;14.67;;
16115;SDS011;8162;47.104;15.432;2023-03-03T21:32:01;18.53;;;15.10;;
16115;SDS011;8162;47.104;15.432;2023-03-03T21:38:30;23.27;;;15.83;;
16115;SDS011;8162;47.104;15.432;2023-03-03T21:45:08;20.53;;;15.87;;
16115;SDS011;8162;47.104;15.432;2023-03-03T21:48:13;20.47;;;15.23;;
16115;SDS011;8162;47.104;15.432;2023-03-03T21:51:13;19.17;;;15.50;;
16115;SDS011;8162;47.104;15.432;2023-03-03T21:54:14;22.00;;;16.73;;
16115;SDS011;8162;47.104;15.432;2023-03-03T21:57:15;19.83;;;16.37;;
16115;SDS011;8162;47.104;15.432;2023-03-03T22:00:16;21.23;;;16.30;;
16115;SDS011;8162;47.104;15.432;2023-03-03T22:03:17;20.73;;;15.97;;
16115;SDS011;8162;47.104;15.432;2023-03-03T22:06:19;22.83;;;16.17;;
16115;SDS011;8162;47.104;15.432;2023-03-03T22:09:20;21.17;;;16.27;;
16115;SDS011;8162;47.104;15.432;2023-03-03T22:12:21;20.37;;;15.03;;
16115;SDS011;8162;47.104;15.432;2023-03-03T22:15:23;21.57;;;15.83;;
16115;SDS011;8162;47.104;15.432;2023-03-03T22:18:23;18.27;;;14.23;;
16115;SDS011;8162;47.104;15.432;2023-03-03T22:21:24;19.50;;;15.60;;
16115;SDS011;8162;47.104;15.432;2023-03-03T22:24:25;20.13;;;16.07;;
16115;SDS011;8162;47.104;15.432;2023-03-03T22:27:25;21.30;;;15.90;;
16115;SDS011;8162;47.104;15.432;2023-03-03T22:30:26;21.37;;;15.73;;
16115;SDS011;8162;47.104;15.432;2023-03-03T22:33:27;22.00;;;16.03;;
16115;SDS011;8162;47.104;15.432;2023-03-03T22:36:28;21.83;;;15.17;;
16115;SDS011;8162;47.104;15.432;2023-03-03T22:39:28;19.63;;;15.50;;
16115;SDS011;8162;47.104;15.432;2023-03-03T22:42:29;19.23;;;16.00;;
16115;SDS011;8162;47.104;15.432;2023-03-03T22:45:30;21.37;;;14.13;;
16115;SDS011;8162;47.104;15.432;2023-03-03T22:48:30;19.67;;;15.73;;
16115;SDS011;8162;47.104;15.432;2023-03-03T22:51:31;22.37;;;16.90;;
16115;SDS011;8162;47.104;15.432;2023-03-03T22:54:32;20.90;;;14.50;;
16115;SDS011;8162;47.104;15.432;2023-03-03T22:57:32;19.93;;;13.83;;
16115;SDS011;8162;47.104;15.432;2023-03-03T23:00:34;22.93;;;15.17;;
16115;SDS011;8162;47.104;15.432;2023-03-03T23:03:38;19.47;;;14.30;;
16115;SDS011;8162;47.104;15.432;2023-03-03T23:06:39;15.67;;;13.00;;
16115;SDS011;8162;47.104;15.432;2023-03-03T23:09:40;23.10;;;13.13;;
16115;SDS011;8162;47.104;15.432;2023-03-03T23:12:40;16.00;;;12.23;;
16115;SDS011;8162;47.104;15.432;2023-03-03T23:15:41;15.87;;;11.93;;
16115;SDS011;8162;47.104;15.432;2023-03-03T23:18:42;15.87;;;11.83;;
16115;SDS011;8162;47.104;15.432;2023-03-03T23:21:43;16.03;;;12.07;;
16115;SDS011;8162;47.104;15.432;2023-03-03T23:24:44;17.43;;;12.77;;
16115;SDS011;8162;47.104;15.432;2023-03-03T23:27:45;16.60;;;11.50;;
16115;SDS011;8162;47.104;15.432;2023-03-03T23:30:45;18.67;;;13.83;;
16115;SDS011;8162;47.104;15.432;2023-03-03T23:33:46;17.50;;;12.07;;
16115;SDS011;8162;47.104;15.432;2023-03-03T23:36:47;19.07;;;13.60;;
16115;SDS011;8162;47.104;15.432;2023-03-03T23:39:48;16.23;;;12.20;;
16115;SDS011;8162;47.104;15.432;2023-03-03T23:42:48;17.83;;;12.03;;
16115;SDS011;8162;47.104;15.432;2023-03-03T23:45:49;16.13;;;11.00;;
16115;SDS011;8162;47.104;15.432;2023-03-03T23:48:50;15.87;;;11.27;;
16115;SDS011;8162;47.104;15.432;2023-03-03T23:51:50;19.33;;;12.13;;
16115;SDS011;8162;47.104;15.432;2023-03-03T23:54:51;16.17;;;10.57;;
16115;SDS011;8162;47.104;15.432;2023-03-03T23:57:52;14.43;;;11.10;;
